sensor_id;sensor_type;location;lat;lon;timestamp;temperature;humidity
55369;DHT22;41247;49.736;8.752;2023-04-25T00:01:12;6.40;99.90
55369;DHT22;41247;49.736;8.752;2023-04-25T00:04:53;6.30;99.90
55369;DHT22;41247;49.736;8.752;2023-04-25T00:08:33;6.20;99.90
55369;DHT22;41247;49.736;8.752;2023-04-25T00:12:14;6.20;99.90
55369;DHT22;41247;49.736;8.752;2023-04-25T00:15:55;6.20;99.90
55369;DHT22;41247;49.736;8.752;2023-04-25T00:19:35;6.20;99.90
55369;DHT22;41247;49.736;8.752;2023-04-25T00:23:17;6.20;99.90
55369;DHT22;41247;49.736;8.752;2023-04-25T00:26:57;6.20;99.90
55369;DHT22;41247;49.736;8.752;2023-04-25T00:30:38;6.10;99.90
55369;DHT22;41247;49.736;8.752;2023-04-25T00:34:19;6.10;99.90
55369;DHT22;41247;49.736;8.752;2023-04-25T00:38:00;6.10;99.90
55369;DHT22;41247;49.736;8.752;2023-04-25T00:41:41;6.10;99.90
55369;DHT22;41247;49.736;8.752;2023-04-25T00:45:21;6.10;99.90
55369;DHT22;41247;49.736;8.752;2023-04-25T00:49:07;6.00;99.90
55369;DHT22;41247;49.736;8.752;2023-04-25T00:52:48;6.00;99.90
55369;DHT22;41247;49.736;8.752;2023-04-25T00:56:29;6.00;99.90
55369;DHT22;41247;49.736;8.752;2023-04-25T01:00:10;6.00;99.90
55369;DHT22;41247;49.736;8.752;2023-04-25T01:03:52;6.00;99.90
55369;DHT22;41247;49.736;8.752;2023-04-25T01:07:34;6.00;99.90
55369;DHT22;41247;49.736;8.752;2023-04-25T01:11:14;6.00;99.90
55369;DHT22;41247;49.736;8.752;2023-04-25T01:14:55;6.00;99.90
55369;DHT22;41247;49.736;8.752;2023-04-25T01:18:38;6.00;99.90
55369;DHT22;41247;49.736;8.752;2023-04-25T01:22:19;6.00;99.90
55369;DHT22;41247;49.736;8.752;2023-04-25T01:26:00;6.00;99.90
55369;DHT22;41247;49.736;8.752;2023-04-25T01:29:41;6.00;99.90
55369;DHT22;41247;49.736;8.752;2023-04-25T01:33:22;6.00;99.90
55369;DHT22;41247;49.736;8.752;2023-04-25T01:37:03;6.00;99.90
55369;DHT22;41247;49.736;8.752;2023-04-25T01:40:44;6.10;99.90
55369;DHT22;41247;49.736;8.752;2023-04-25T01:44:26;6.10;99.90
55369;DHT22;41247;49.736;8.752;2023-04-25T01:48:10;6.10;99.90
55369;DHT22;41247;49.736;8.752;2023-04-25T01:51:52;6.10;99.90
55369;DHT22;41247;49.736;8.752;2023-04-25T01:55:32;6.10;99.90
55369;DHT22;41247;49.736;8.752;2023-04-25T01:59:13;6.10;99.90
55369;DHT22;41247;49.736;8.752;2023-04-25T02:02:53;6.10;99.90
55369;DHT22;41247;49.736;8.752;2023-04-25T02:06:38;6.10;99.90
55369;DHT22;41247;49.736;8.752;2023-04-25T02:10:19;6.10;99.90
55369;DHT22;41247;49.736;8.752;2023-04-25T02:13:59;6.10;99.90
55369;DHT22;41247;49.736;8.752;2023-04-25T02:17:40;6.10;99.90
55369;DHT22;41247;49.736;8.752;2023-04-25T02:21:20;6.10;99.90
55369;DHT22;41247;49.736;8.752;2023-04-25T02:25:01;6.10;99.90
55369;DHT22;41247;49.736;8.752;2023-04-25T02:28:42;6.10;99.90
55369;DHT22;41247;49.736;8.752;2023-04-25T02:32:23;6.10;99.90
55369;DHT22;41247;49.736;8.752;2023-04-25T02:36:04;6.10;99.90
55369;DHT22;41247;49.736;8.752;2023-04-25T02:39:44;6.10;99.90
55369;DHT22;41247;49.736;8.752;2023-04-25T02:43:25;6.10;99.90
55369;DHT22;41247;49.736;8.752;2023-04-25T02:47:06;6.10;99.90
55369;DHT22;41247;49.736;8.752;2023-04-25T02:50:46;6.10;99.90
55369;DHT22;41247;49.736;8.752;2023-04-25T02:54:27;6.10;99.90
55369;DHT22;41247;49.736;8.752;2023-04-25T02:58:07;6.10;99.90
55369;DHT22;41247;49.736;8.752;2023-04-25T03:01:48;6.10;99.90
55369;DHT22;41247;49.736;8.752;2023-04-25T03:05:29;6.10;99.90
55369;DHT22;41247;49.736;8.752;2023-04-25T03:09:09;6.10;99.90
55369;DHT22;41247;49.736;8.752;2023-04-25T03:12:50;6.10;99.90
55369;DHT22;41247;49.736;8.752;2023-04-25T03:16:30;6.10;99.90
55369;DHT22;41247;49.736;8.752;2023-04-25T03:20:11;6.10;99.90
55369;DHT22;41247;49.736;8.752;2023-04-25T03:23:52;6.10;99.90
55369;DHT22;41247;49.736;8.752;2023-04-25T03:27:33;6.10;99.90
55369;DHT22;41247;49.736;8.752;2023-04-25T03:31:13;6.10;99.90
55369;DHT22;41247;49.736;8.752;2023-04-25T03:34:54;6.10;99.90
55369;DHT22;41247;49.736;8.752;2023-04-25T03:38:34;6.10;99.90
55369;DHT22;41247;49.736;8.752;2023-04-25T03:42:15;6.10;99.90
55369;DHT22;41247;49.736;8.752;2023-04-25T03:45:56;6.10;99.90
55369;DHT22;41247;49.736;8.752;2023-04-25T03:49:36;6.10;99.90
55369;DHT22;41247;49.736;8.752;2023-04-25T03:53:17;6.10;99.90
55369;DHT22;41247;49.736;8.752;2023-04-25T03:56:58;6.10;99.90
55369;DHT22;41247;49.736;8.752;2023-04-25T04:00:38;6.10;99.90
55369;DHT22;41247;49.736;8.752;2023-04-25T04:04:19;6.20;99.90
55369;DHT22;41247;49.736;8.752;2023-04-25T04:07:59;6.20;99.90
55369;DHT22;41247;49.736;8.752;2023-04-25T04:11:40;6.20;99.90
55369;DHT22;41247;49.736;8.752;2023-04-25T04:15:20;6.30;99.90
55369;DHT22;41247;49.736;8.752;2023-04-25T04:19:02;6.30;99.90
55369;DHT22;41247;49.736;8.752;2023-04-25T04:22:42;6.30;99.90
55369;DHT22;41247;49.736;8.752;2023-04-25T04:26:23;6.30;99.90
55369;DHT22;41247;49.736;8.752;2023-04-25T04:30:04;6.40;99.90
55369;DHT22;41247;49.736;8.752;2023-04-25T04:33:45;6.40;99.90
55369;DHT22;41247;49.736;8.752;2023-04-25T04:37:26;6.30;99.90
55369;DHT22;41247;49.736;8.752;2023-04-25T04:41:07;6.30;99.90
55369;DHT22;41247;49.736;8.752;2023-04-25T04:44:48;6.40;99.90
55369;DHT22;41247;49.736;8.752;2023-04-25T04:48:28;6.40;99.90
55369;DHT22;41247;49.736;8.752;2023-04-25T04:52:09;6.40;99.90
55369;DHT22;41247;49.736;8.752;2023-04-25T04:55:50;6.50;99.90
55369;DHT22;41247;49.736;8.752;2023-04-25T04:59:30;6.60;99.90
55369;DHT22;41247;49.736;8.752;2023-04-25T05:03:11;6.60;99.90
55369;DHT22;41247;49.736;8.752;2023-04-25T05:06:51;6.70;99.90
55369;DHT22;41247;49.736;8.752;2023-04-25T05:10:32;6.70;99.90
55369;DHT22;41247;49.736;8.752;2023-04-25T05:14:13;6.70;99.90
55369;DHT22;41247;49.736;8.752;2023-04-25T05:17:54;6.70;99.90
55369;DHT22;41247;49.736;8.752;2023-04-25T05:21:34;6.70;99.90
55369;DHT22;41247;49.736;8.752;2023-04-25T05:25:15;6.60;99.90
55369;DHT22;41247;49.736;8.752;2023-04-25T05:28:59;6.60;99.90
55369;DHT22;41247;49.736;8.752;2023-04-25T05:32:39;6.60;99.90
55369;DHT22;41247;49.736;8.752;2023-04-25T05:36:20;6.60;99.90
55369;DHT22;41247;49.736;8.752;2023-04-25T05:40:02;6.60;99.90
55369;DHT22;41247;49.736;8.752;2023-04-25T05:43:43;6.60;99.90
55369;DHT22;41247;49.736;8.752;2023-04-25T05:47:23;6.70;99.90
55369;DHT22;41247;49.736;8.752;2023-04-25T05:51:04;6.70;99.90
55369;DHT22;41247;49.736;8.752;2023-04-25T05:54:45;6.70;99.90
55369;DHT22;41247;49.736;8.752;2023-04-25T05:58:25;6.80;99.90
55369;DHT22;41247;49.736;8.752;2023-04-25T06:02:06;6.90;99.90
55369;DHT22;41247;49.736;8.752;2023-04-25T06:05:47;6.90;99.90
55369;DHT22;41247;49.736;8.752;2023-04-25T06:09:27;6.90;99.90
55369;DHT22;41247;49.736;8.752;2023-04-25T06:13:08;6.90;99.90
55369;DHT22;41247;49.736;8.752;2023-04-25T06:16:48;6.80;99.90
55369;DHT22;41247;49.736;8.752;2023-04-25T06:20:29;6.90;99.90
55369;DHT22;41247;49.736;8.752;2023-04-25T06:24:10;7.10;99.90
55369;DHT22;41247;49.736;8.752;2023-04-25T06:27:50;7.30;99.90
55369;DHT22;41247;49.736;8.752;2023-04-25T06:31:31;7.50;99.90
55369;DHT22;41247;49.736;8.752;2023-04-25T06:35:11;7.60;99.90
55369;DHT22;41247;49.736;8.752;2023-04-25T06:38:52;7.70;99.90
55369;DHT22;41247;49.736;8.752;2023-04-25T06:42:33;7.70;99.90
55369;DHT22;41247;49.736;8.752;2023-04-25T06:46:13;7.80;99.90
55369;DHT22;41247;49.736;8.752;2023-04-25T06:49:54;7.70;99.90
55369;DHT22;41247;49.736;8.752;2023-04-25T06:53:34;7.70;99.90
55369;DHT22;41247;49.736;8.752;2023-04-25T06:57:15;7.70;99.90
55369;DHT22;41247;49.736;8.752;2023-04-25T07:00:56;7.80;99.90
55369;DHT22;41247;49.736;8.752;2023-04-25T07:04:36;7.80;99.90
55369;DHT22;41247;49.736;8.752;2023-04-25T07:08:17;7.80;99.90
55369;DHT22;41247;49.736;8.752;2023-04-25T07:11:58;7.80;99.90
55369;DHT22;41247;49.736;8.752;2023-04-25T07:15:38;7.90;99.90
55369;DHT22;41247;49.736;8.752;2023-04-25T07:19:19;7.90;99.90
55369;DHT22;41247;49.736;8.752;2023-04-25T07:23:00;7.90;99.90
55369;DHT22;41247;49.736;8.752;2023-04-25T07:26:40;7.90;99.90
55369;DHT22;41247;49.736;8.752;2023-04-25T07:30:21;7.90;99.90
55369;DHT22;41247;49.736;8.752;2023-04-25T07:34:01;8.00;99.90
55369;DHT22;41247;49.736;8.752;2023-04-25T07:37:42;8.20;99.90
55369;DHT22;41247;49.736;8.752;2023-04-25T07:41:23;8.40;99.90
55369;DHT22;41247;49.736;8.752;2023-04-25T07:45:04;8.40;99.90
55369;DHT22;41247;49.736;8.752;2023-04-25T07:48:44;8.50;99.90
55369;DHT22;41247;49.736;8.752;2023-04-25T07:52:25;8.70;99.90
55369;DHT22;41247;49.736;8.752;2023-04-25T07:56:06;8.80;99.90
55369;DHT22;41247;49.736;8.752;2023-04-25T07:59:47;8.90;99.90
55369;DHT22;41247;49.736;8.752;2023-04-25T08:03:27;9.00;99.90
55369;DHT22;41247;49.736;8.752;2023-04-25T08:07:08;9.00;99.90
55369;DHT22;41247;49.736;8.752;2023-04-25T08:10:49;9.00;99.90
55369;DHT22;41247;49.736;8.752;2023-04-25T08:14:30;9.00;99.90
55369;DHT22;41247;49.736;8.752;2023-04-25T08:18:11;9.00;99.90
55369;DHT22;41247;49.736;8.752;2023-04-25T08:21:51;9.10;99.90
55369;DHT22;41247;49.736;8.752;2023-04-25T08:25:32;9.20;99.90
55369;DHT22;41247;49.736;8.752;2023-04-25T08:29:12;9.50;99.90
55369;DHT22;41247;49.736;8.752;2023-04-25T08:32:53;9.70;99.90
55369;DHT22;41247;49.736;8.752;2023-04-25T08:36:33;9.90;99.90
55369;DHT22;41247;49.736;8.752;2023-04-25T08:40:15;10.00;99.90
55369;DHT22;41247;49.736;8.752;2023-04-25T08:43:56;10.10;99.90
55369;DHT22;41247;49.736;8.752;2023-04-25T08:47:38;10.10;99.90
55369;DHT22;41247;49.736;8.752;2023-04-25T08:51:23;9.90;99.90
55369;DHT22;41247;49.736;8.752;2023-04-25T08:55:04;9.50;99.90
55369;DHT22;41247;49.736;8.752;2023-04-25T08:58:48;9.40;99.90
55369;DHT22;41247;49.736;8.752;2023-04-25T09:02:29;9.80;99.90
55369;DHT22;41247;49.736;8.752;2023-04-25T09:06:11;10.30;99.90
55369;DHT22;41247;49.736;8.752;2023-04-25T09:09:51;10.60;99.90
55369;DHT22;41247;49.736;8.752;2023-04-25T09:13:32;10.70;99.90
55369;DHT22;41247;49.736;8.752;2023-04-25T09:17:13;10.30;99.90
55369;DHT22;41247;49.736;8.752;2023-04-25T09:20:54;10.20;99.90
55369;DHT22;41247;49.736;8.752;2023-04-25T09:24:43;10.40;99.90
55369;DHT22;41247;49.736;8.752;2023-04-25T09:28:25;10.80;99.90
55369;DHT22;41247;49.736;8.752;2023-04-25T09:32:18;11.50;99.90
55369;DHT22;41247;49.736;8.752;2023-04-25T09:36:10;11.70;99.90
55369;DHT22;41247;49.736;8.752;2023-04-25T09:39:56;11.60;99.90
55369;DHT22;41247;49.736;8.752;2023-04-25T09:43:38;11.20;99.90
55369;DHT22;41247;49.736;8.752;2023-04-25T09:47:20;11.00;99.90
55369;DHT22;41247;49.736;8.752;2023-04-25T09:51:12;10.80;99.90
55369;DHT22;41247;49.736;8.752;2023-04-25T09:54:53;10.80;99.90
55369;DHT22;41247;49.736;8.752;2023-04-25T09:58:36;11.00;99.90
55369;DHT22;41247;49.736;8.752;2023-04-25T10:02:20;11.60;99.90
55369;DHT22;41247;49.736;8.752;2023-04-25T10:06:02;12.10;99.90
55369;DHT22;41247;49.736;8.752;2023-04-25T10:09:47;12.20;99.90
55369;DHT22;41247;49.736;8.752;2023-04-25T10:13:30;12.10;99.90
55369;DHT22;41247;49.736;8.752;2023-04-25T10:17:12;12.10;99.90
55369;DHT22;41247;49.736;8.752;2023-04-25T10:21:04;12.10;99.90
55369;DHT22;41247;49.736;8.752;2023-04-25T10:24:46;12.40;99.90
55369;DHT22;41247;49.736;8.752;2023-04-25T10:28:27;12.70;99.90
55369;DHT22;41247;49.736;8.752;2023-04-25T10:32:08;12.80;99.90
55369;DHT22;41247;49.736;8.752;2023-04-25T10:35:49;12.70;99.90
55369;DHT22;41247;49.736;8.752;2023-04-25T10:39:29;12.20;99.90
55369;DHT22;41247;49.736;8.752;2023-04-25T10:47:44;11.80;99.90
55369;DHT22;41247;49.736;8.752;2023-04-25T10:51:26;11.70;99.90
55369;DHT22;41247;49.736;8.752;2023-04-25T10:55:12;11.50;99.90
55369;DHT22;41247;49.736;8.752;2023-04-25T10:59:22;11.50;99.90
55369;DHT22;41247;49.736;8.752;2023-04-25T11:03:05;11.40;99.90
55369;DHT22;41247;49.736;8.752;2023-04-25T11:10:50;10.90;99.90
55369;DHT22;41247;49.736;8.752;2023-04-25T11:14:30;10.90;99.90
55369;DHT22;41247;49.736;8.752;2023-04-25T11:18:15;10.90;99.90
55369;DHT22;41247;49.736;8.752;2023-04-25T11:22:00;11.10;99.90
55369;DHT22;41247;49.736;8.752;2023-04-25T11:25:42;11.40;99.90
55369;DHT22;41247;49.736;8.752;2023-04-25T11:29:23;11.90;99.90
55369;DHT22;41247;49.736;8.752;2023-04-25T11:33:07;12.10;99.90
55369;DHT22;41247;49.736;8.752;2023-04-25T11:36:49;11.90;99.90
55369;DHT22;41247;49.736;8.752;2023-04-25T11:40:30;12.20;99.90
55369;DHT22;41247;49.736;8.752;2023-04-25T11:44:11;12.80;99.90
55369;DHT22;41247;49.736;8.752;2023-04-25T11:47:52;12.90;99.90
55369;DHT22;41247;49.736;8.752;2023-04-25T11:51:43;12.70;99.90
55369;DHT22;41247;49.736;8.752;2023-04-25T11:55:25;12.60;99.90
55369;DHT22;41247;49.736;8.752;2023-04-25T11:59:05;12.10;99.90
55369;DHT22;41247;49.736;8.752;2023-04-25T12:02:50;11.90;99.90
55369;DHT22;41247;49.736;8.752;2023-04-25T12:06:32;11.80;99.90
55369;DHT22;41247;49.736;8.752;2023-04-25T12:10:17;12.00;99.90
55369;DHT22;41247;49.736;8.752;2023-04-25T12:14:04;12.30;99.90
55369;DHT22;41247;49.736;8.752;2023-04-25T12:17:46;12.90;99.90
55369;DHT22;41247;49.736;8.752;2023-04-25T12:21:28;13.20;99.90
55369;DHT22;41247;49.736;8.752;2023-04-25T12:25:09;13.30;99.90
55369;DHT22;41247;49.736;8.752;2023-04-25T12:28:49;13.50;99.90
55369;DHT22;41247;49.736;8.752;2023-04-25T12:32:30;13.50;99.90
55369;DHT22;41247;49.736;8.752;2023-04-25T12:36:11;13.40;99.90
55369;DHT22;41247;49.736;8.752;2023-04-25T12:39:51;13.10;99.90
55369;DHT22;41247;49.736;8.752;2023-04-25T12:43:32;12.80;99.90
55369;DHT22;41247;49.736;8.752;2023-04-25T12:47:14;12.60;99.90
55369;DHT22;41247;49.736;8.752;2023-04-25T12:50:54;12.50;99.90
55369;DHT22;41247;49.736;8.752;2023-04-25T12:54:35;12.30;99.90
55369;DHT22;41247;49.736;8.752;2023-04-25T12:58:17;12.30;99.90
55369;DHT22;41247;49.736;8.752;2023-04-25T13:01:59;12.40;99.90
55369;DHT22;41247;49.736;8.752;2023-04-25T13:05:40;12.70;99.90
55369;DHT22;41247;49.736;8.752;2023-04-25T13:09:20;13.00;99.90
55369;DHT22;41247;49.736;8.752;2023-04-25T13:13:01;13.10;99.90
55369;DHT22;41247;49.736;8.752;2023-04-25T13:16:42;13.10;99.90
55369;DHT22;41247;49.736;8.752;2023-04-25T13:20:22;12.60;99.90
55369;DHT22;41247;49.736;8.752;2023-04-25T13:24:03;12.20;99.90
55369;DHT22;41247;49.736;8.752;2023-04-25T13:27:44;12.20;99.90
55369;DHT22;41247;49.736;8.752;2023-04-25T13:31:25;12.40;99.90
55369;DHT22;41247;49.736;8.752;2023-04-25T13:35:08;12.70;99.90
55369;DHT22;41247;49.736;8.752;2023-04-25T13:38:50;13.30;99.90
55369;DHT22;41247;49.736;8.752;2023-04-25T13:42:31;14.10;99.90
55369;DHT22;41247;49.736;8.752;2023-04-25T13:46:12;14.80;99.90
55369;DHT22;41247;49.736;8.752;2023-04-25T13:49:53;15.20;99.90
55369;DHT22;41247;49.736;8.752;2023-04-25T13:53:34;15.20;99.90
55369;DHT22;41247;49.736;8.752;2023-04-25T13:57:14;15.40;99.90
55369;DHT22;41247;49.736;8.752;2023-04-25T14:00:55;15.00;99.90
55369;DHT22;41247;49.736;8.752;2023-04-25T14:04:35;14.50;99.90
55369;DHT22;41247;49.736;8.752;2023-04-25T14:08:16;14.30;99.90
55369;DHT22;41247;49.736;8.752;2023-04-25T14:11:57;14.50;99.90
55369;DHT22;41247;49.736;8.752;2023-04-25T14:15:37;15.10;99.90
55369;DHT22;41247;49.736;8.752;2023-04-25T14:19:18;15.10;99.90
55369;DHT22;41247;49.736;8.752;2023-04-25T14:22:59;14.70;99.90
55369;DHT22;41247;49.736;8.752;2023-04-25T14:26:39;14.20;99.90
55369;DHT22;41247;49.736;8.752;2023-04-25T14:30:21;13.80;99.90
55369;DHT22;41247;49.736;8.752;2023-04-25T14:34:02;13.50;99.90
55369;DHT22;41247;49.736;8.752;2023-04-25T14:37:43;13.30;99.90
55369;DHT22;41247;49.736;8.752;2023-04-25T14:41:24;13.00;99.90
55369;DHT22;41247;49.736;8.752;2023-04-25T14:45:06;12.80;99.90
55369;DHT22;41247;49.736;8.752;2023-04-25T14:48:47;12.50;99.90
55369;DHT22;41247;49.736;8.752;2023-04-25T14:52:28;12.30;99.90
55369;DHT22;41247;49.736;8.752;2023-04-25T14:56:08;12.40;99.90
55369;DHT22;41247;49.736;8.752;2023-04-25T14:59:49;12.50;99.90
55369;DHT22;41247;49.736;8.752;2023-04-25T15:03:30;12.40;99.90
55369;DHT22;41247;49.736;8.752;2023-04-25T15:07:10;12.30;99.90
55369;DHT22;41247;49.736;8.752;2023-04-25T15:10:51;12.50;99.90
55369;DHT22;41247;49.736;8.752;2023-04-25T15:14:33;12.30;99.90
55369;DHT22;41247;49.736;8.752;2023-04-25T15:18:29;12.50;99.90
55369;DHT22;41247;49.736;8.752;2023-04-25T15:22:10;13.00;99.90
55369;DHT22;41247;49.736;8.752;2023-04-25T15:25:50;13.20;99.90
55369;DHT22;41247;49.736;8.752;2023-04-25T15:29:31;13.00;99.90
55369;DHT22;41247;49.736;8.752;2023-04-25T15:33:12;13.00;99.90
55369;DHT22;41247;49.736;8.752;2023-04-25T15:36:52;13.00;99.90
55369;DHT22;41247;49.736;8.752;2023-04-25T15:40:33;12.70;99.90
55369;DHT22;41247;49.736;8.752;2023-04-25T15:44:13;12.50;99.90
55369;DHT22;41247;49.736;8.752;2023-04-25T15:47:55;12.50;99.90
55369;DHT22;41247;49.736;8.752;2023-04-25T15:51:36;12.60;99.90
55369;DHT22;41247;49.736;8.752;2023-04-25T15:55:17;12.60;99.90
55369;DHT22;41247;49.736;8.752;2023-04-25T15:58:58;12.60;99.90
55369;DHT22;41247;49.736;8.752;2023-04-25T16:02:42;12.30;99.90
55369;DHT22;41247;49.736;8.752;2023-04-25T16:06:25;11.90;99.90
55369;DHT22;41247;49.736;8.752;2023-04-25T16:10:06;12.00;99.90
55369;DHT22;41247;49.736;8.752;2023-04-25T16:13:48;12.30;99.90
55369;DHT22;41247;49.736;8.752;2023-04-25T16:17:29;12.20;99.90
55369;DHT22;41247;49.736;8.752;2023-04-25T16:21:09;12.20;99.90
55369;DHT22;41247;49.736;8.752;2023-04-25T16:24:50;12.20;99.90
55369;DHT22;41247;49.736;8.752;2023-04-25T16:28:32;11.90;99.90
55369;DHT22;41247;49.736;8.752;2023-04-25T16:32:13;11.60;99.90
55369;DHT22;41247;49.736;8.752;2023-04-25T16:35:53;11.70;99.90
55369;DHT22;41247;49.736;8.752;2023-04-25T16:39:34;11.90;99.90
55369;DHT22;41247;49.736;8.752;2023-04-25T16:43:15;11.90;99.90
55369;DHT22;41247;49.736;8.752;2023-04-25T16:47:00;11.90;99.90
55369;DHT22;41247;49.736;8.752;2023-04-25T16:50:41;11.70;99.90
55369;DHT22;41247;49.736;8.752;2023-04-25T16:54:21;11.40;99.90
55369;DHT22;41247;49.736;8.752;2023-04-25T16:58:02;11.30;99.90
55369;DHT22;41247;49.736;8.752;2023-04-25T17:01:43;11.20;99.90
55369;DHT22;41247;49.736;8.752;2023-04-25T17:05:23;11.10;99.90
55369;DHT22;41247;49.736;8.752;2023-04-25T17:09:04;10.90;99.90
55369;DHT22;41247;49.736;8.752;2023-04-25T17:12:45;10.80;99.90
55369;DHT22;41247;49.736;8.752;2023-04-25T17:16:36;10.70;99.90
55369;DHT22;41247;49.736;8.752;2023-04-25T17:20:17;10.50;99.90
55369;DHT22;41247;49.736;8.752;2023-04-25T17:23:58;10.30;99.90
55369;DHT22;41247;49.736;8.752;2023-04-25T17:27:38;10.30;99.90
55369;DHT22;41247;49.736;8.752;2023-04-25T17:31:20;10.20;99.90
55369;DHT22;41247;49.736;8.752;2023-04-25T17:35:00;10.10;99.90
55369;DHT22;41247;49.736;8.752;2023-04-25T17:38:41;10.00;99.90
55369;DHT22;41247;49.736;8.752;2023-04-25T17:42:22;9.90;99.90
55369;DHT22;41247;49.736;8.752;2023-04-25T17:46:02;9.80;99.90
55369;DHT22;41247;49.736;8.752;2023-04-25T17:49:43;9.60;99.90
55369;DHT22;41247;49.736;8.752;2023-04-25T17:53:24;9.40;99.90
55369;DHT22;41247;49.736;8.752;2023-04-25T17:57:04;9.30;99.90
55369;DHT22;41247;49.736;8.752;2023-04-25T18:00:45;9.20;99.90
55369;DHT22;41247;49.736;8.752;2023-04-25T18:04:26;9.10;99.90
55369;DHT22;41247;49.736;8.752;2023-04-25T18:08:06;9.00;99.90
55369;DHT22;41247;49.736;8.752;2023-04-25T18:11:47;9.00;99.90
55369;DHT22;41247;49.736;8.752;2023-04-25T18:15:28;8.90;99.90
55369;DHT22;41247;49.736;8.752;2023-04-25T18:19:09;8.80;99.90
55369;DHT22;41247;49.736;8.752;2023-04-25T18:22:50;8.70;99.90
55369;DHT22;41247;49.736;8.752;2023-04-25T18:26:30;8.60;99.90
55369;DHT22;41247;49.736;8.752;2023-04-25T18:30:12;8.50;99.90
55369;DHT22;41247;49.736;8.752;2023-04-25T18:33:52;8.40;99.90
55369;DHT22;41247;49.736;8.752;2023-04-25T18:37:33;8.30;99.90
55369;DHT22;41247;49.736;8.752;2023-04-25T18:41:15;8.20;99.90
